Time;durP1;ratioP1;P1;durP2;ratioP2;P2;SDS_P1;SDS_P2;PMS_P1;PMS_P2;Temp;Humidity;BMP_temperature;BMP_pressure;BME280_temperature;BME280_humidity;BME280_pressure;Samples;Min_cycle;Max_cycle;Signal;HPM_P1;HPM_P2
2024/01/17 00:00:31;;;;;;;12.50;7.63;;;;;;;;;;5087978;28;20661;-77
2024/01/17 00:02:58;;;;;;;13.50;7.87;;;;;;;;;;5070887;28;20257;-79
2024/01/17 00:05:24;;;;;;;13.63;7.80;;;;;;;;;;5078790;28;20236;-77
2024/01/17 00:07:51;;;;;;;16.87;7.73;;;;;;;;;;5080916;28;20566;-76
2024/01/17 00:10:18;;;;;;;14.27;7.57;;;;;;;;;;5078536;28;20203;-77
2024/01/17 00:12:45;;;;;;;10.60;7.40;;;;;;;;;;5076075;28;20224;-78
2024/01/17 00:15:12;;;;;;;14.57;8.27;;;;;;;;;;5082130;28;20712;-77
2024/01/17 00:17:38;;;;;;;11.40;7.23;;;;;;;;;;5077004;28;20295;-77
2024/01/17 00:20:06;;;;;;;12.53;8.17;;;;;;;;;;5077179;28;20204;-77
2024/01/17 00:22:33;;;;;;;12.33;8.77;;;;;;;;;;5089999;28;20199;-77
2024/01/17 00:25:00;;;;;;;16.07;9.70;;;;;;;;;;5076146;28;20688;-78
2024/01/17 00:27:26;;;;;;;16.13;9.27;;;;;;;;;;5074318;28;20193;-78
2024/01/17 00:29:57;;;;;;;22.63;15.63;;;;;;;;;;5071900;28;20217;-79
2024/01/17 00:32:25;;;;;;;17.93;12.70;;;;;;;;;;5076633;28;20196;-77
2024/01/17 00:34:52;;;;;;;20.63;12.13;;;;;;;;;;5075448;28;20271;-77
2024/01/17 00:37:18;;;;;;;14.67;10.00;;;;;;;;;;5079367;28;20216;-79
2024/01/17 00:39:46;;;;;;;16.90;10.53;;;;;;;;;;5074988;28;20696;-77
2024/01/17 00:42:12;;;;;;;17.27;10.50;;;;;;;;;;5072498;28;20263;-77
2024/01/17 00:44:40;;;;;;;19.30;10.93;;;;;;;;;;5073617;28;20304;-78
2024/01/17 00:47:07;;;;;;;15.17;9.57;;;;;;;;;;5078325;28;20196;-78
2024/01/17 00:49:33;;;;;;;16.10;10.40;;;;;;;;;;5074241;28;20308;-79
2024/01/17 00:52:00;;;;;;;18.00;10.63;;;;;;;;;;5080570;28;20220;-76
2024/01/17 00:54:26;;;;;;;17.40;10.87;;;;;;;;;;5073494;28;20185;-77
2024/01/17 00:56:53;;;;;;;18.87;11.20;;;;;;;;;;5077907;28;20192;-77
2024/01/17 00:59:19;;;;;;;16.47;10.40;;;;;;;;;;5074309;28;20211;-77
2024/01/17 01:01:46;;;;;;;17.57;10.80;;;;;;;;;;5085039;28;20232;-77
2024/01/17 01:04:12;;;;;;;19.97;12.57;;;;;;;;;;5072616;28;20269;-77
2024/01/17 01:06:39;;;;;;;20.70;12.93;;;;;;;;;;5072635;28;20201;-77
2024/01/17 01:09:06;;;;;;;18.30;12.20;;;;;;;;;;5078128;28;20186;-78
2024/01/17 01:11:33;;;;;;;15.07;10.07;;;;;;;;;;5081335;28;20192;-78
2024/01/17 01:14:00;;;;;;;16.20;9.73;;;;;;;;;;5073030;28;20680;-76
2024/01/17 01:16:27;;;;;;;19.20;9.53;;;;;;;;;;5072623;28;20197;-78
2024/01/17 01:18:54;;;;;;;15.30;9.20;;;;;;;;;;5071549;28;20732;-77
2024/01/17 01:21:20;;;;;;;14.70;8.73;;;;;;;;;;5082982;28;20191;-77
2024/01/17 01:23:47;;;;;;;16.40;8.90;;;;;;;;;;5084702;28;20197;-76
2024/01/17 01:26:17;;;;;;;15.07;9.27;;;;;;;;;;5075143;28;20243;-77
2024/01/17 01:28:43;;;;;;;14.97;9.30;;;;;;;;;;5081398;28;20251;-77
2024/01/17 01:31:10;;;;;;;13.07;8.27;;;;;;;;;;5072524;28;20239;-77
2024/01/17 01:33:36;;;;;;;14.13;8.27;;;;;;;;;;5074175;28;20253;-77
2024/01/17 01:36:05;;;;;;;11.63;7.67;;;;;;;;;;5072871;28;20193;-78
2024/01/17 01:38:31;;;;;;;13.57;8.43;;;;;;;;;;5072721;28;20189;-79
2024/01/17 01:41:01;;;;;;;16.40;9.90;;;;;;;;;;5077673;28;20208;-78
2024/01/17 01:43:27;;;;;;;17.23;10.00;;;;;;;;;;5076503;28;20242;-79
2024/01/17 01:45:54;;;;;;;17.33;9.40;;;;;;;;;;5074753;28;20224;-79
2024/01/17 01:48:20;;;;;;;21.17;10.70;;;;;;;;;;5076380;28;20192;-78
2024/01/17 01:50:47;;;;;;;21.80;11.63;;;;;;;;;;5076290;28;20590;-79
2024/01/17 01:53:14;;;;;;;19.60;10.70;;;;;;;;;;5089715;28;20192;-79
2024/01/17 01:55:41;;;;;;;17.37;10.20;;;;;;;;;;5082374;28;20225;-77
2024/01/17 01:58:08;;;;;;;17.27;9.40;;;;;;;;;;5079969;28;20188;-78
2024/01/17 02:00:34;;;;;;;18.80;9.37;;;;;;;;;;5084425;28;20200;-79
2024/01/17 02:03:01;;;;;;;17.13;9.43;;;;;;;;;;5076060;28;20193;-77
2024/01/17 02:05:27;;;;;;;18.13;9.17;;;;;;;;;;5077315;28;20303;-76
2024/01/17 02:07:56;;;;;;;17.27;9.67;;;;;;;;;;5077581;28;20200;-77
2024/01/17 02:10:22;;;;;;;21.13;10.00;;;;;;;;;;5076072;28;20221;-77
2024/01/17 02:12:49;;;;;;;19.83;10.27;;;;;;;;;;5077519;28;20209;-76
2024/01/17 02:15:15;;;;;;;17.13;9.30;;;;;;;;;;5069537;28;20229;-77
2024/01/17 02:17:42;;;;;;;15.43;8.67;;;;;;;;;;5088811;28;20193;-77
2024/01/17 02:20:09;;;;;;;16.07;9.30;;;;;;;;;;5075776;28;20205;-79
2024/01/17 02:22:37;;;;;;;14.30;9.40;;;;;;;;;;5075798;28;20673;-77
2024/01/17 02:25:04;;;;;;;16.50;10.27;;;;;;;;;;5077298;28;20212;-78
2024/01/17 02:27:31;;;;;;;16.77;10.87;;;;;;;;;;5083262;28;20189;-78
2024/01/17 02:29:57;;;;;;;17.27;11.20;;;;;;;;;;5086330;28;20220;-79
2024/01/17 02:32:25;;;;;;;16.83;10.90;;;;;;;;;;5074685;28;20273;-78
2024/01/17 02:34:52;;;;;;;13.87;9.90;;;;;;;;;;5075530;28;20263;-78
2024/01/17 02:37:18;;;;;;;17.37;10.93;;;;;;;;;;5087100;28;20722;-77
2024/01/17 02:39:45;;;;;;;17.10;11.20;;;;;;;;;;5081562;28;20216;-79
2024/01/17 02:42:11;;;;;;;16.73;11.67;;;;;;;;;;5064275;28;20639;-78
2024/01/17 02:44:38;;;;;;;19.13;12.40;;;;;;;;;;5076931;28;20274;-77
2024/01/17 02:47:05;;;;;;;19.17;12.53;;;;;;;;;;5074785;28;20243;-78
2024/01/17 02:49:31;;;;;;;20.50;13.70;;;;;;;;;;5074763;28;20232;-78
2024/01/17 02:51:58;;;;;;;20.07;13.67;;;;;;;;;;5076925;28;20200;-77
2024/01/17 02:54:24;;;;;;;20.10;12.93;;;;;;;;;;5075066;28;20208;-78
2024/01/17 02:56:51;;;;;;;23.63;14.87;;;;;;;;;;5086624;28;20220;-77
2024/01/17 02:59:18;;;;;;;22.33;14.60;;;;;;;;;;5081461;28;20661;-77
2024/01/17 03:01:46;;;;;;;21.97;14.00;;;;;;;;;;5081242;28;20570;-78
2024/01/17 03:04:12;;;;;;;20.17;13.73;;;;;;;;;;5081575;28;20207;-78
2024/01/17 03:06:39;;;;;;;22.73;14.77;;;;;;;;;;5081974;28;20217;-79
2024/01/17 03:09:06;;;;;;;21.00;14.47;;;;;;;;;;5085956;28;20193;-80
2024/01/17 03:11:32;;;;;;;20.50;13.67;;;;;;;;;;5081425;28;20193;-79
2024/01/17 03:14:00;;;;;;;22.07;14.47;;;;;;;;;;5076510;28;20196;-79
2024/01/17 03:16:27;;;;;;;23.47;14.90;;;;;;;;;;5077560;28;20278;-80
2024/01/17 03:18:53;;;;;;;23.20;14.63;;;;;;;;;;5084764;28;20213;-77
2024/01/17 03:21:20;;;;;;;22.30;14.43;;;;;;;;;;5073221;28;20208;-78
2024/01/17 03:23:47;;;;;;;23.93;14.77;;;;;;;;;;5082017;28;20197;-78
2024/01/17 03:26:13;;;;;;;21.97;14.53;;;;;;;;;;5078177;28;20225;-79
2024/01/17 03:28:42;;;;;;;23.30;14.67;;;;;;;;;;5079177;28;20192;-79
2024/01/17 03:31:09;;;;;;;23.07;15.67;;;;;;;;;;5081391;28;20197;-79
2024/01/17 03:33:36;;;;;;;21.37;14.10;;;;;;;;;;5076053;28;20649;-79
2024/01/17 03:36:03;;;;;;;24.17;15.00;;;;;;;;;;5082957;28;20189;-78
2024/01/17 03:38:29;;;;;;;25.63;15.90;;;;;;;;;;5082822;28;20198;-79
2024/01/17 03:41:00;;;;;;;24.70;16.43;;;;;;;;;;5074253;28;20211;-79
2024/01/17 03:43:27;;;;;;;24.40;15.37;;;;;;;;;;5082804;28;20196;-79
2024/01/17 03:45:56;;;;;;;25.50;16.07;;;;;;;;;;5087743;28;20220;-79
2024/01/17 03:48:23;;;;;;;25.10;15.80;;;;;;;;;;5079740;28;20231;-79
2024/01/17 03:50:50;;;;;;;24.77;15.47;;;;;;;;;;5080412;28;20312;-79
2024/01/17 03:53:17;;;;;;;25.20;15.80;;;;;;;;;;5063640;28;20729;-78
2024/01/17 03:55:44;;;;;;;27.47;16.47;;;;;;;;;;5076738;28;20185;-79
2024/01/17 03:58:10;;;;;;;23.63;15.60;;;;;;;;;;5076728;28;20231;-80
2024/01/17 04:00:37;;;;;;;24.23;15.93;;;;;;;;;;5089439;28;20223;-79
2024/01/17 04:03:03;;;;;;;28.33;17.53;;;;;;;;;;5070301;28;20194;-78
2024/01/17 04:05:30;;;;;;;25.03;16.33;;;;;;;;;;5079153;28;20213;-79
2024/01/17 04:07:57;;;;;;;25.63;16.50;;;;;;;;;;5081138;28;20224;-79
2024/01/17 04:10:23;;;;;;;28.37;17.37;;;;;;;;;;5061460;28;20201;-78
2024/01/17 04:12:50;;;;;;;26.73;17.33;;;;;;;;;;5058665;28;20219;-78
2024/01/17 04:15:16;;;;;;;28.50;18.07;;;;;;;;;;5080556;28;20188;-79
2024/01/17 04:17:43;;;;;;;27.67;16.93;;;;;;;;;;5076124;28;20197;-77
2024/01/17 04:20:10;;;;;;;25.97;16.87;;;;;;;;;;5072721;28;20732;-79
2024/01/17 04:22:36;;;;;;;30.33;17.90;;;;;;;;;;5078838;28;20254;-78
2024/01/17 04:25:03;;;;;;;27.23;16.80;;;;;;;;;;5070545;28;20294;-79
2024/01/17 04:27:31;;;;;;;26.40;17.03;;;;;;;;;;5072393;28;20244;-79
2024/01/17 04:29:58;;;;;;;27.37;16.90;;;;;;;;;;5073738;28;20223;-79
2024/01/17 04:32:25;;;;;;;26.50;17.53;;;;;;;;;;5075080;28;20201;-78
2024/01/17 04:34:52;;;;;;;26.27;16.70;;;;;;;;;;5079436;28;20212;-77
2024/01/17 04:37:19;;;;;;;28.40;17.00;;;;;;;;;;5074335;28;20193;-79
2024/01/17 04:39:45;;;;;;;29.23;17.27;;;;;;;;;;5074617;28;20193;-79
2024/01/17 04:42:12;;;;;;;26.53;17.07;;;;;;;;;;5074596;28;20279;-79
2024/01/17 04:44:41;;;;;;;28.33;17.53;;;;;;;;;;5066694;28;20312;-79
2024/01/17 04:47:07;;;;;;;25.70;16.70;;;;;;;;;;5080764;28;20248;-79
2024/01/17 04:49:34;;;;;;;27.70;17.23;;;;;;;;;;5073903;28;20229;-81
2024/01/17 04:52:01;;;;;;;28.57;17.67;;;;;;;;;;5074668;28;20653;-80
2024/01/17 04:54:30;;;;;;;27.43;17.50;;;;;;;;;;5073713;28;20731;-78
2024/01/17 04:56:57;;;;;;;25.80;16.93;;;;;;;;;;5075799;28;20198;-79
2024/01/17 04:59:25;;;;;;;29.83;17.77;;;;;;;;;;5075581;28;20193;-79
2024/01/17 05:01:51;;;;;;;29.90;17.37;;;;;;;;;;5088324;28;20204;-82
2024/01/17 05:04:18;;;;;;;30.03;17.20;;;;;;;;;;5076748;28;20205;-79
2024/01/17 05:06:45;;;;;;;26.70;16.43;;;;;;;;;;5080375;28;20213;-79
2024/01/17 05:09:12;;;;;;;26.77;16.37;;;;;;;;;;5076956;28;20210;-78
2024/01/17 05:11:39;;;;;;;27.90;17.50;;;;;;;;;;5077732;28;20197;-80
2024/01/17 05:14:06;;;;;;;28.77;16.97;;;;;;;;;;5052018;28;20217;-79
2024/01/17 05:16:32;;;;;;;25.70;16.43;;;;;;;;;;5078004;28;20267;-78
2024/01/17 05:18:59;;;;;;;26.37;16.37;;;;;;;;;;5073940;28;20204;-81
2024/01/17 05:21:26;;;;;;;27.63;17.27;;;;;;;;;;5074614;28;20246;-80
2024/01/17 05:23:52;;;;;;;25.57;16.97;;;;;;;;;;5073207;28;20739;-81
2024/01/17 05:26:19;;;;;;;27.30;16.50;;;;;;;;;;5079387;28;20216;-81
2024/01/17 05:28:46;;;;;;;26.77;17.53;;;;;;;;;;5060831;28;20254;-80
2024/01/17 05:31:12;;;;;;;27.07;17.63;;;;;;;;;;5071575;28;20220;-80
2024/01/17 05:33:39;;;;;;;25.83;16.47;;;;;;;;;;5078506;28;20200;-81
2024/01/17 05:36:06;;;;;;;26.10;17.03;;;;;;;;;;5059118;28;20227;-79
2024/01/17 05:38:32;;;;;;;24.60;16.40;;;;;;;;;;5081218;28;20220;-81
2024/01/17 05:40:59;;;;;;;24.77;16.23;;;;;;;;;;5081208;28;20200;-81
2024/01/17 05:43:26;;;;;;;25.43;16.87;;;;;;;;;;5077226;28;20200;-81
2024/01/17 05:45:52;;;;;;;24.73;16.73;;;;;;;;;;5076348;28;20235;-81
2024/01/17 05:48:19;;;;;;;25.93;16.03;;;;;;;;;;5071387;28;20290;-82
2024/01/17 05:50:46;;;;;;;25.00;16.90;;;;;;;;;;5072778;28;20236;-81
2024/01/17 05:53:12;;;;;;;23.83;16.00;;;;;;;;;;5072702;28;20359;-81
2024/01/17 05:55:39;;;;;;;21.27;14.43;;;;;;;;;;5069405;28;20204;-81
2024/01/17 05:58:06;;;;;;;23.33;15.77;;;;;;;;;;5053838;28;20655;-81
2024/01/17 06:00:32;;;;;;;22.37;15.10;;;;;;;;;;5076257;28;20295;-80
2024/01/17 06:02:59;;;;;;;21.27;15.17;;;;;;;;;;5076834;28;20197;-81
2024/01/17 06:05:25;;;;;;;22.87;15.33;;;;;;;;;;5074070;28;20201;-79
2024/01/17 06:07:52;;;;;;;23.23;15.40;;;;;;;;;;5071597;28;20224;-81
2024/01/17 06:10:19;;;;;;;22.43;15.33;;;;;;;;;;5075359;28;20200;-81
2024/01/17 06:12:45;;;;;;;20.73;14.87;;;;;;;;;;5075980;28;20213;-81
2024/01/17 06:15:12;;;;;;;23.07;15.20;;;;;;;;;;5073881;28;20232;-81
2024/01/17 06:17:40;;;;;;;22.00;14.93;;;;;;;;;;5074289;28;20216;-80
2024/01/17 06:20:09;;;;;;;22.27;14.63;;;;;;;;;;5068123;28;20197;-80
2024/01/17 06:22:37;;;;;;;20.77;15.17;;;;;;;;;;5075676;28;20295;-81
2024/01/17 06:25:06;;;;;;;19.37;13.70;;;;;;;;;;5077398;28;20197;-81
2024/01/17 06:27:33;;;;;;;20.73;14.27;;;;;;;;;;5077562;28;20244;-81
2024/01/17 06:30:00;;;;;;;19.60;13.63;;;;;;;;;;5080838;28;20189;-79
2024/01/17 06:32:26;;;;;;;19.53;13.47;;;;;;;;;;5080888;28;20210;-82
2024/01/17 06:34:53;;;;;;;20.50;13.50;;;;;;;;;;5079958;28;20204;-80
2024/01/17 06:37:20;;;;;;;20.50;14.07;;;;;;;;;;5068033;28;20200;-80
2024/01/17 06:39:46;;;;;;;21.17;14.27;;;;;;;;;;5078358;28;20254;-81
2024/01/17 06:42:13;;;;;;;20.77;13.83;;;;;;;;;;5077291;28;20224;-80
2024/01/17 06:44:41;;;;;;;19.50;13.30;;;;;;;;;;5077642;28;20247;-83
2024/01/17 06:47:08;;;;;;;21.17;13.57;;;;;;;;;;5075571;28;20228;-81
2024/01/17 06:49:35;;;;;;;20.07;13.20;;;;;;;;;;5057616;28;20782;-81
2024/01/17 06:52:02;;;;;;;21.23;13.57;;;;;;;;;;5079692;28;20197;-82
2024/01/17 06:54:29;;;;;;;25.63;13.73;;;;;;;;;;5082718;28;20192;-81
2024/01/17 06:56:56;;;;;;;20.97;14.47;;;;;;;;;;5080062;28;20291;-81
2024/01/17 06:59:22;;;;;;;21.33;13.33;;;;;;;;;;5075047;28;20200;-82
2024/01/17 07:01:49;;;;;;;25.13;15.03;;;;;;;;;;5073283;28;20276;-81
2024/01/17 07:04:15;;;;;;;25.67;14.33;;;;;;;;;;5076220;28;20285;-79
2024/01/17 07:06:42;;;;;;;20.87;13.73;;;;;;;;;;5079983;28;20239;-81
2024/01/17 07:09:10;;;;;;;23.83;13.90;;;;;;;;;;5063712;28;20204;-81
2024/01/17 07:11:37;;;;;;;24.03;14.17;;;;;;;;;;5083962;28;20184;-81
2024/01/17 07:14:04;;;;;;;23.97;13.73;;;;;;;;;;5077216;28;20218;-81
2024/01/17 07:16:31;;;;;;;23.00;14.30;;;;;;;;;;5075142;28;20665;-80
2024/01/17 07:18:58;;;;;;;24.57;14.70;;;;;;;;;;5076097;28;20239;-81
2024/01/17 07:21:25;;;;;;;24.60;14.53;;;;;;;;;;5074720;28;20200;-81
2024/01/17 07:23:52;;;;;;;26.27;15.40;;;;;;;;;;5076161;28;20201;-80
2024/01/17 07:26:19;;;;;;;24.83;13.80;;;;;;;;;;5076043;28;20207;-82
2024/01/17 07:28:45;;;;;;;26.30;14.30;;;;;;;;;;5073891;28;20197;-80
2024/01/17 07:31:12;;;;;;;24.40;13.63;;;;;;;;;;5077357;28;20244;-81
2024/01/17 07:33:39;;;;;;;25.47;14.77;;;;;;;;;;5058928;28;20209;-80
2024/01/17 07:36:06;;;;;;;27.93;14.97;;;;;;;;;;5079535;28;20189;-81
2024/01/17 07:38:33;;;;;;;23.93;14.27;;;;;;;;;;5073487;28;20211;-81
2024/01/17 07:41:00;;;;;;;26.00;15.67;;;;;;;;;;5065506;28;20224;-82
2024/01/17 07:43:26;;;;;;;21.57;14.07;;;;;;;;;;5061969;28;20238;-80
2024/01/17 07:45:53;;;;;;;20.00;13.13;;;;;;;;;;5062039;28;20244;-82
2024/01/17 07:48:19;;;;;;;23.47;13.67;;;;;;;;;;5081194;28;20312;-80
2024/01/17 07:50:47;;;;;;;20.90;13.63;;;;;;;;;;5058040;28;20274;-82
2024/01/17 07:53:14;;;;;;;22.80;14.33;;;;;;;;;;5074757;28;20201;-81
2024/01/17 07:55:40;;;;;;;25.93;13.90;;;;;;;;;;5075074;28;20281;-82
2024/01/17 07:58:07;;;;;;;29.57;16.63;;;;;;;;;;5074872;28;20616;-80
2024/01/17 08:00:34;;;;;;;29.63;16.50;;;;;;;;;;5075829;28;20193;-81
2024/01/17 08:03:01;;;;;;;28.70;15.73;;;;;;;;;;5071816;28;20200;-81
2024/01/17 08:05:28;;;;;;;29.33;16.33;;;;;;;;;;5071762;28;20207;-80
2024/01/17 08:07:58;;;;;;;27.67;16.60;;;;;;;;;;5071726;28;20284;-81
2024/01/17 08:10:25;;;;;;;31.33;17.10;;;;;;;;;;5071755;28;20264;-82
2024/01/17 08:12:52;;;;;;;29.30;16.83;;;;;;;;;;5071943;28;20242;-83
2024/01/17 08:15:19;;;;;;;31.73;16.60;;;;;;;;;;5075687;28;20201;-80
2024/01/17 08:17:47;;;;;;;27.50;16.33;;;;;;;;;;5071839;28;20200;-80
2024/01/17 08:20:16;;;;;;;26.33;16.77;;;;;;;;;;5072649;28;20246;-80
2024/01/17 08:22:43;;;;;;;27.40;16.90;;;;;;;;;;5073001;28;20205;-81
2024/01/17 08:25:10;;;;;;;28.90;17.03;;;;;;;;;;5054489;28;20197;-81
2024/01/17 08:27:36;;;;;;;27.10;16.27;;;;;;;;;;5077166;28;20220;-80
2024/01/17 08:30:09;;;;;;;28.33;17.23;;;;;;;;;;5071183;28;20261;-80
2024/01/17 08:32:37;;;;;;;26.80;16.97;;;;;;;;;;5072662;28;20235;-79
2024/01/17 08:35:03;;;;;;;28.83;17.47;;;;;;;;;;5073622;28;20200;-82
2024/01/17 08:37:30;;;;;;;27.63;17.07;;;;;;;;;;5072865;28;20215;-80
2024/01/17 08:39:57;;;;;;;30.43;17.77;;;;;;;;;;5068401;28;20201;-80
2024/01/17 08:42:23;;;;;;;30.60;17.13;;;;;;;;;;5079485;28;20204;-81
2024/01/17 08:44:50;;;;;;;30.33;17.90;;;;;;;;;;5059852;28;20224;-80
2024/01/17 08:47:17;;;;;;;30.33;17.00;;;;;;;;;;5081346;28;20224;-82
2024/01/17 08:49:45;;;;;;;29.90;17.37;;;;;;;;;;5059367;28;20787;-80
2024/01/17 08:52:11;;;;;;;27.57;17.17;;;;;;;;;;5058452;28;20635;-81
2024/01/17 08:54:38;;;;;;;31.00;17.80;;;;;;;;;;5075064;28;20197;-80
2024/01/17 08:57:05;;;;;;;31.53;18.10;;;;;;;;;;5079451;28;20200;-81
2024/01/17 08:59:33;;;;;;;28.50;17.83;;;;;;;;;;5062036;28;20215;-81
2024/01/17 09:01:59;;;;;;;30.00;17.50;;;;;;;;;;5070693;28;20251;-83
2024/01/17 09:04:26;;;;;;;28.70;17.70;;;;;;;;;;5080249;28;20197;-81
2024/01/17 09:06:53;;;;;;;29.50;17.07;;;;;;;;;;5068614;28;20270;-81
2024/01/17 09:09:20;;;;;;;29.70;18.20;;;;;;;;;;5062464;28;20717;-80
2024/01/17 09:11:47;;;;;;;28.70;17.87;;;;;;;;;;5073057;28;20193;-81
2024/01/17 09:14:16;;;;;;;30.40;18.23;;;;;;;;;;5078820;28;20291;-82
2024/01/17 09:16:43;;;;;;;30.33;17.70;;;;;;;;;;5064502;28;20207;-81
2024/01/17 09:19:10;;;;;;;30.03;18.20;;;;;;;;;;5070895;28;20227;-83
2024/01/17 09:21:37;;;;;;;31.20;18.57;;;;;;;;;;5077752;28;20197;-82
2024/01/17 09:24:03;;;;;;;30.50;18.30;;;;;;;;;;5056342;28;20209;-81
2024/01/17 09:26:30;;;;;;;31.20;18.73;;;;;;;;;;5063100;28;20207;-79
2024/01/17 09:28:57;;;;;;;28.90;18.37;;;;;;;;;;5055124;28;20220;-82
2024/01/17 09:31:23;;;;;;;30.20;17.97;;;;;;;;;;5062073;28;20894;-80
2024/01/17 09:33:50;;;;;;;32.80;19.30;;;;;;;;;;5067136;28;20235;-81
2024/01/17 09:36:16;;;;;;;34.37;19.47;;;;;;;;;;5070478;28;20222;-83
2024/01/17 09:38:43;;;;;;;33.73;19.23;;;;;;;;;;5053844;28;20216;-82
2024/01/17 09:41:10;;;;;;;32.10;19.43;;;;;;;;;;5059377;28;20211;-81
2024/01/17 09:43:36;;;;;;;31.47;18.73;;;;;;;;;;5079793;28;20274;-82
2024/01/17 09:46:04;;;;;;;27.67;17.73;;;;;;;;;;5055717;28;20221;-80
2024/01/17 09:48:31;;;;;;;30.30;18.93;;;;;;;;;;5072894;28;20529;-81
2024/01/17 09:50:57;;;;;;;30.83;18.93;;;;;;;;;;5070901;28;20240;-83
2024/01/17 09:53:27;;;;;;;33.50;19.90;;;;;;;;;;5076279;28;20294;-82
2024/01/17 09:55:55;;;;;;;28.00;17.97;;;;;;;;;;5078338;28;20197;-83
2024/01/17 09:58:22;;;;;;;31.70;18.23;;;;;;;;;;5061196;28;20295;-82
2024/01/17 10:00:50;;;;;;;27.13;17.50;;;;;;;;;;5082249;28;20203;-81
2024/01/17 10:03:20;;;;;;;28.40;17.13;;;;;;;;;;5089960;28;20232;-82
2024/01/17 10:05:51;;;;;;;26.83;17.63;;;;;;;;;;5087804;28;20193;-83
2024/01/17 10:08:18;;;;;;;28.33;17.93;;;;;;;;;;5073285;28;20224;-81
2024/01/17 10:10:45;;;;;;;27.47;17.87;;;;;;;;;;5078179;28;20235;-80
2024/01/17 10:13:12;;;;;;;28.00;18.07;;;;;;;;;;5089925;28;20197;-80
2024/01/17 10:15:42;;;;;;;30.47;18.23;;;;;;;;;;5066354;28;20201;-80
2024/01/17 10:18:10;;;;;;;28.43;18.90;;;;;;;;;;5083339;28;20689;-82
2024/01/17 10:20:37;;;;;;;27.37;18.27;;;;;;;;;;5083439;28;20632;-82
2024/01/17 10:23:06;;;;;;;28.00;17.67;;;;;;;;;;5081258;28;20219;-81
2024/01/17 10:25:40;;;;;;;26.93;17.47;;;;;;;;;;5085742;28;20204;-82
2024/01/17 10:28:07;;;;;;;26.77;17.40;;;;;;;;;;5066927;28;20212;-81
2024/01/17 10:30:35;;;;;;;27.83;17.87;;;;;;;;;;5083622;28;20199;-81
2024/01/17 10:33:03;;;;;;;26.40;17.17;;;;;;;;;;5086044;28;20275;-79
2024/01/17 10:35:30;;;;;;;26.77;17.37;;;;;;;;;;5092580;28;20206;-83
2024/01/17 10:37:57;;;;;;;28.00;18.80;;;;;;;;;;5087250;28;20196;-83
2024/01/17 10:40:23;;;;;;;25.37;17.27;;;;;;;;;;5083580;28;20205;-81
2024/01/17 10:43:03;;;;;;;26.43;18.50;;;;;;;;;;5076099;28;20196;-82
2024/01/17 10:45:33;;;;;;;26.17;17.63;;;;;;;;;;5087099;28;20217;-80
2024/01/17 10:47:59;;;;;;;28.03;18.07;;;;;;;;;;5072858;28;20208;-81
2024/01/17 10:50:27;;;;;;;27.90;18.00;;;;;;;;;;5072743;28;20224;-81
2024/01/17 10:52:57;;;;;;;26.87;17.33;;;;;;;;;;5076750;28;20724;-82
2024/01/17 10:55:27;;;;;;;27.40;17.63;;;;;;;;;;5058859;28;20258;-81
2024/01/17 10:57:57;;;;;;;28.00;18.27;;;;;;;;;;5076729;28;20193;-79
2024/01/17 11:00:29;;;;;;;25.47;17.70;;;;;;;;;;5076087;28;20461;-80
2024/01/17 11:02:58;;;;;;;27.83;17.90;;;;;;;;;;5071285;28;20197;-82
2024/01/17 11:05:33;;;;;;;28.23;17.70;;;;;;;;;;5079172;28;20184;-81
2024/01/17 11:08:01;;;;;;;26.53;17.20;;;;;;;;;;5075154;28;20251;-81
2024/01/17 11:10:28;;;;;;;27.03;18.23;;;;;;;;;;5077529;28;20650;-80
2024/01/17 11:12:55;;;;;;;29.23;18.40;;;;;;;;;;5073687;28;20211;-79
2024/01/17 11:15:22;;;;;;;25.90;17.83;;;;;;;;;;5072938;28;20184;-80
2024/01/17 11:17:49;;;;;;;27.47;17.70;;;;;;;;;;5073446;28;20200;-81
2024/01/17 11:20:17;;;;;;;26.20;17.87;;;;;;;;;;5075127;28;20672;-81
2024/01/17 11:22:46;;;;;;;31.53;18.50;;;;;;;;;;5058311;28;20307;-80
2024/01/17 11:25:32;;;;;;;26.17;17.87;;;;;;;;;;5076249;28;20197;-81
2024/01/17 11:28:19;;;;;;;26.40;17.30;;;;;;;;;;5073911;28;20247;-81
2024/01/17 11:30:46;;;;;;;27.57;17.87;;;;;;;;;;5075955;28;20208;-81
2024/01/17 11:33:15;;;;;;;27.83;17.77;;;;;;;;;;5075899;28;20224;-81
2024/01/17 11:35:47;;;;;;;26.17;17.40;;;;;;;;;;5071138;28;20207;-80
2024/01/17 11:38:27;;;;;;;26.73;17.70;;;;;;;;;;5077085;28;20274;-82
2024/01/17 11:40:57;;;;;;;26.50;17.43;;;;;;;;;;5073272;28;20293;-80
2024/01/17 11:43:30;;;;;;;26.50;18.13;;;;;;;;;;5079912;28;20192;-79
2024/01/17 11:45:59;;;;;;;28.57;18.43;;;;;;;;;;5078462;28;20278;-80
2024/01/17 11:48:27;;;;;;;27.80;18.17;;;;;;;;;;5060049;28;20716;-82
2024/01/17 11:50:58;;;;;;;27.33;18.27;;;;;;;;;;5077556;28;20266;-80
2024/01/17 11:53:26;;;;;;;28.10;18.30;;;;;;;;;;5071455;28;20218;-80
2024/01/17 11:55:52;;;;;;;27.60;18.50;;;;;;;;;;5059438;28;20278;-81
2024/01/17 11:58:21;;;;;;;29.63;18.47;;;;;;;;;;5074387;28;20189;-81
2024/01/17 12:00:52;;;;;;;27.00;18.67;;;;;;;;;;5072884;28;20280;-79
2024/01/17 12:03:27;;;;;;;31.67;18.60;;;;;;;;;;5077020;28;20197;-80
2024/01/17 12:05:55;;;;;;;28.40;18.90;;;;;;;;;;5071545;28;20660;-79
2024/01/17 12:08:22;;;;;;;32.80;18.47;;;;;;;;;;5071264;28;20208;-81
2024/01/17 12:10:55;;;;;;;28.07;18.97;;;;;;;;;;5075451;28;20188;-79
2024/01/17 12:13:23;;;;;;;28.83;18.97;;;;;;;;;;5073910;28;20656;-80
2024/01/17 12:15:54;;;;;;;28.23;18.23;;;;;;;;;;5075050;28;20251;-81
2024/01/17 12:18:22;;;;;;;26.20;17.90;;;;;;;;;;5076911;28;20224;-79
2024/01/17 12:20:49;;;;;;;27.57;18.63;;;;;;;;;;5070639;28;20196;-80
2024/01/17 12:23:22;;;;;;;29.87;19.50;;;;;;;;;;5071637;28;20222;-84
2024/01/17 12:25:49;;;;;;;27.67;18.27;;;;;;;;;;5070893;28;20197;-81
2024/01/17 12:28:19;;;;;;;27.57;18.33;;;;;;;;;;5071052;28;20216;-79
2024/01/17 12:30:57;;;;;;;27.43;18.70;;;;;;;;;;5067246;28;20203;-83
2024/01/17 12:33:24;;;;;;;27.37;18.50;;;;;;;;;;5071649;28;20211;-81
2024/01/17 12:35:52;;;;;;;27.63;18.27;;;;;;;;;;5071797;28;20309;-79
2024/01/17 12:38:19;;;;;;;27.33;18.03;;;;;;;;;;5072455;28;20669;-81
2024/01/17 12:40:46;;;;;;;27.80;18.07;;;;;;;;;;5062538;28;20247;-80
2024/01/17 12:43:13;;;;;;;25.47;17.73;;;;;;;;;;5069519;28;20200;-80
2024/01/17 12:45:40;;;;;;;27.37;17.87;;;;;;;;;;5074399;28;20259;-81
2024/01/17 12:48:08;;;;;;;26.87;17.80;;;;;;;;;;5074594;28;20273;-80
2024/01/17 12:50:35;;;;;;;32.40;18.10;;;;;;;;;;5073997;28;20258;-80
2024/01/17 12:53:05;;;;;;;29.10;18.70;;;;;;;;;;5075750;28;20201;-81
2024/01/17 12:55:32;;;;;;;27.23;18.37;;;;;;;;;;5083070;28;20220;-79
2024/01/17 12:57:58;;;;;;;30.70;18.43;;;;;;;;;;5077832;28;20674;-81
2024/01/17 13:00:27;;;;;;;30.50;19.37;;;;;;;;;;5078034;28;20218;-82
2024/01/17 13:02:55;;;;;;;30.80;19.17;;;;;;;;;;5062611;28;20231;-81
2024/01/17 13:05:24;;;;;;;32.03;19.53;;;;;;;;;;5082636;28;20250;-79
2024/01/17 13:07:51;;;;;;;27.47;19.03;;;;;;;;;;5082336;28;20254;-79
2024/01/17 13:10:18;;;;;;;29.03;19.30;;;;;;;;;;5082103;28;20254;-78
2024/01/17 13:12:48;;;;;;;28.37;18.97;;;;;;;;;;5080414;28;20204;-81
2024/01/17 13:15:15;;;;;;;28.87;18.53;;;;;;;;;;5063955;28;20295;-80
2024/01/17 13:17:45;;;;;;;30.40;18.73;;;;;;;;;;5060679;28;20216;-79
2024/01/17 13:20:18;;;;;;;31.20;18.83;;;;;;;;;;5065569;28;20257;-81
2024/01/17 13:22:44;;;;;;;28.40;18.47;;;;;;;;;;5077231;28;20220;-82
2024/01/17 13:25:11;;;;;;;26.53;17.40;;;;;;;;;;5082036;28;20367;-83
2024/01/17 13:27:38;;;;;;;30.87;18.27;;;;;;;;;;5086418;28;20275;-80
2024/01/17 13:30:05;;;;;;;28.90;18.67;;;;;;;;;;5051916;28;20300;-79
2024/01/17 13:32:32;;;;;;;31.00;18.07;;;;;;;;;;5075525;28;20205;-80
2024/01/17 13:34:59;;;;;;;31.83;19.73;;;;;;;;;;5063065;28;20204;-81
2024/01/17 13:37:26;;;;;;;29.23;19.07;;;;;;;;;;5081419;28;20196;-79
2024/01/17 13:39:53;;;;;;;30.73;19.67;;;;;;;;;;5086375;28;20191;-80
2024/01/17 13:42:19;;;;;;;30.20;18.97;;;;;;;;;;5072508;28;20688;-79
2024/01/17 13:44:47;;;;;;;31.63;19.40;;;;;;;;;;5084631;28;20207;-80
2024/01/17 13:47:15;;;;;;;29.70;19.10;;;;;;;;;;5090460;28;20193;-80
2024/01/17 13:49:43;;;;;;;33.27;20.03;;;;;;;;;;5088555;28;20240;-80
2024/01/17 13:52:14;;;;;;;29.70;18.17;;;;;;;;;;5090217;28;20188;-81
2024/01/17 13:54:45;;;;;;;29.30;18.47;;;;;;;;;;5067987;28;20202;-79
2024/01/17 13:57:11;;;;;;;30.23;18.80;;;;;;;;;;5078144;28;20220;-82
2024/01/17 13:59:40;;;;;;;30.57;18.40;;;;;;;;;;5076670;28;20280;-79
2024/01/17 14:02:06;;;;;;;29.50;18.70;;;;;;;;;;5079787;28;20277;-81
2024/01/17 14:04:33;;;;;;;30.03;19.17;;;;;;;;;;5074360;28;20196;-80
2024/01/17 14:07:00;;;;;;;28.63;18.77;;;;;;;;;;5086161;28;20195;-80
2024/01/17 14:09:29;;;;;;;29.53;19.33;;;;;;;;;;5078606;28;20216;-81
2024/01/17 14:11:56;;;;;;;31.67;19.37;;;;;;;;;;5089359;28;20241;-80
2024/01/17 14:14:23;;;;;;;30.60;18.80;;;;;;;;;;5058064;28;20200;-80
2024/01/17 14:16:50;;;;;;;33.67;19.23;;;;;;;;;;5078505;28;20185;-80
2024/01/17 14:19:16;;;;;;;28.67;18.83;;;;;;;;;;5075650;28;20657;-81